CDT,Max TemperatureF,Mean TemperatureF,Min TemperatureF,Max Dew PointF,MeanDew PointF,Min DewpointF,Max Humidity, Mean Humidity, Min Humidity, Max Sea Level PressureIn, Mean Sea Level PressureIn, Min Sea Level PressureIn, Max VisibilityMiles, Mean VisibilityMiles, Min VisibilityMiles, Max Wind SpeedMPH, Mean Wind SpeedMPH, Max Gust SpeedMPH,PrecipitationIn, CloudCover, Events, WindDirDegrees
2012-10-1,76,69,62,73,65,60,94,84,73,29.74,29.63,29.53,10,8,4,20,8,25,0.03,7,Rain,231
2012-10-2,77,70,62,61,59,56,93,72,50,30.01,29.85,29.74,10,9,6,13,4,22,0.00,5,,281
2012-10-3,81,71,60,64,59,54,93,68,42,30.15,30.08,30.02,10,10,10,10,3,14,0.00,3,,101
2012-10-4,86,74,61,66,61,58,93,68,43,30.24,30.18,30.15,10,10,10,9,5,13,0.00,2,,34
2012-10-5,87,75,62,69,63,59,97,71,44,30.16,30.09,30.00,10,10,8,13,3,16,0.00,2,,7
2012-10-6,88,75,61,67,63,59,100,70,40,30.04,30.00,29.93,10,6,0,13,5,17,0.00,3,Fog,333
2012-10-7,74,65,55,60,55,49,93,75,57,30.12,30.06,30.02,10,10,7,17,10,21,0.00,4,,357
2012-10-8,75,63,51,53,49,45,83,65,46,30.14,30.09,30.04,10,10,10,15,9,20,0.00,1,,360
2012-10-9,77,64,50,57,52,47,93,70,46,30.15,30.09,30.04,10,10,10,12,4,20,0.00,0,,358
2012-10-10,84,69,54,63,59,53,93,70,47,30.18,30.13,30.09,10,9,5,14,3,15,0.00,2,Fog,350
2012-10-11,84,72,60,63,61,59,97,72,47,30.25,30.20,30.16,10,9,7,9,3,13,0.00,1,,30
2012-10-12,85,72,58,64,58,50,97,64,31,30.28,30.22,30.18,10,9,4,8,2,15,0.00,3,,147
2012-10-13,85,72,59,68,63,57,97,74,51,30.25,30.19,30.14,10,10,7,13,5,16,0.00,3,,129
2012-10-14,87,77,66,70,67,64,97,74,51,30.16,30.08,30.00,10,9,7,14,4,17,0.00,5,,157
2012-10-15,84,72,60,70,64,50,93,66,39,30.02,29.98,29.91,10,8,3,15,6,20,0.02,4,Rain,325
2012-10-16,79,67,55,54,49,43,77,53,28,30.01,29.94,29.88,10,10,10,12,5,21,0.00,4,,38
2012-10-17,80,68,56,64,57,51,86,67,48,29.91,29.85,29.79,10,10,10,15,6,20,0.00,4,,147
2012-10-18,82,71,59,72,61,44,93,62,30,29.90,29.81,29.75,10,9,2,17,7,23,0.14,5,Rain,314
2012-10-19,78,63,47,48,40,29,93,55,16,29.95,29.90,29.85,10,10,10,15,5,22,0.00,0,,284
2012-10-20,80,62,43,49,43,35,96,59,21,30.01,29.97,29.91,10,10,10,13,2,18,0.00,0,,296
2012-10-21,82,65,48,55,50,42,93,60,26,30.13,30.08,30.01,10,10,10,10,2,15,0.00,2,,62
2012-10-22,82,68,54,58,53,48,90,62,33,30.16,30.11,30.07,10,10,10,13,4,16,0.00,0,,114
2012-10-23,84,70,55,64,60,54,93,70,47,30.12,30.07,30.03,10,10,8,15,4,18,0.00,2,,104
2012-10-24,84,71,58,64,60,56,93,70,47,30.11,30.05,30.00,10,10,7,9,3,16,0.00,2,,85
2012-10-25,85,72,58,65,60,57,97,69,40,30.02,29.98,29.94,10,10,7,12,3,16,0.00,2,,79
2012-10-26,86,73,60,63,60,56,100,69,37,29.99,29.94,29.89,10,9,2,15,6,20,0.00,2,,351
2012-10-27,65,58,50,60,47,43,89,80,71,29.99,29.96,29.93,10,9,7,22,15,29,0.00,7,,337
2012-10-28,65,55,44,43,38,34,89,62,34,30.09,29.99,29.95,10,10,8,24,12,32,0.00,2,,326
2012-10-29,62,51,39,36,32,27,85,56,27,30.14,30.07,30.00,10,10,10,26,10,32,0.00,0,,327
2012-10-30,66,53,39,38,32,28,76,51,26,30.07,30.03,29.96,10,10,10,16,7,24,0.00,2,,299
2012-10-31,76,61,45,58,46,38,90,62,33,30.06,30.01,29.95,10,10,9,13,6,17,0.00,2,,251